Time;durP1;ratioP1;P1;durP2;ratioP2;P2;SDS_P1;SDS_P2;PMS_P1;PMS_P2;Temp;Humidity;BMP_temperature;BMP_pressure;BME280_temperature;BME280_humidity;BME280_pressure;Samples;Min_cycle;Max_cycle;Signal;HPM_P1;HPM_P2
2021/03/04 00:00:37;;;;;;;106.88;27.88;;;6.70;99.90;;;;;;5053483;28;20021;-73
2021/03/04 00:03:05;;;;;;;108.47;28.77;;;5.10;99.90;;;;;;5049836;28;20029;-75
2021/03/04 00:05:31;;;;;;;108.97;29.10;;;5.10;99.90;;;;;;5036085;28;20075;-74
2021/03/04 00:07:57;;;;;;;106.22;29.00;;;5.10;99.90;;;;;;5052975;28;20032;-74
2021/03/04 00:10:23;;;;;;;111.38;29.38;;;5.10;99.90;;;;;;5053549;28;20036;-74
2021/03/04 00:12:49;;;;;;;107.70;28.33;;;5.10;99.90;;;;;;5035223;28;20021;-74
2021/03/04 00:15:18;;;;;;;103.82;29.02;;;5.10;99.90;;;;;;5052919;28;20029;-74
2021/03/04 00:17:45;;;;;;;111.93;29.85;;;5.10;99.90;;;;;;5053108;28;20021;-74
2021/03/04 00:20:16;;;;;;;99.57;26.65;;;5.10;99.90;;;;;;5053107;28;20111;-74
2021/03/04 00:22:42;;;;;;;116.35;30.15;;;5.10;99.90;;;;;;5052803;28;20032;-74
2021/03/04 00:25:09;;;;;;;105.30;28.70;;;5.10;99.90;;;;;;5035236;28;20036;-74
2021/03/04 00:27:34;;;;;;;97.95;28.50;;;5.20;99.90;;;;;;5053874;28;20143;-74
2021/03/04 00:30:00;;;;;;;90.00;23.25;;;5.20;99.90;;;;;;5038609;28;20053;-74
2021/03/04 00:32:26;;;;;;;89.20;25.10;;;5.10;99.90;;;;;;5057294;28;20131;-74
2021/03/04 00:34:51;;;;;;;95.72;27.55;;;5.10;99.90;;;;;;5044019;28;20471;-74
2021/03/04 00:37:17;;;;;;;95.55;26.55;;;5.10;99.90;;;;;;5039671;28;20048;-74
2021/03/04 00:39:42;;;;;;;80.03;23.75;;;5.10;99.90;;;;;;5055965;22;20479;-73
2021/03/04 00:42:08;;;;;;;89.15;25.70;;;5.10;99.90;;;;;;5097724;28;20032;-73
2021/03/04 00:44:35;;;;;;;83.47;25.15;;;5.00;99.90;;;;;;5079340;28;20034;-73
2021/03/04 00:47:00;;;;;;;96.25;25.88;;;5.10;99.90;;;;;;5097395;28;20024;-73
2021/03/04 00:49:26;;;;;;;86.10;25.60;;;5.00;99.90;;;;;;5072098;28;20027;-74
2021/03/04 00:51:51;;;;;;;88.20;24.65;;;4.90;99.90;;;;;;5068314;28;20078;-74
2021/03/04 00:54:17;;;;;;;83.43;25.48;;;4.90;99.90;;;;;;5059378;28;20047;-74
2021/03/04 00:56:42;;;;;;;84.32;25.33;;;5.00;99.90;;;;;;5059521;28;20116;-74
2021/03/04 00:59:08;;;;;;;84.75;24.50;;;5.00;99.90;;;;;;5083921;28;20457;-74
2021/03/04 01:01:34;;;;;;;78.13;24.50;;;5.00;99.90;;;;;;5062184;28;20478;-74
2021/03/04 01:03:59;;;;;;;79.13;23.05;;;5.00;99.90;;;;;;5077829;28;20467;-73
2021/03/04 01:06:25;;;;;;;80.65;24.42;;;5.00;99.90;;;;;;5075444;28;20036;-73
2021/03/04 01:08:50;;;;;;;73.68;23.10;;;5.00;99.90;;;;;;5097555;28;20024;-74
2021/03/04 01:11:16;;;;;;;84.93;24.98;;;5.00;99.90;;;;;;5063840;28;20020;-74
2021/03/04 01:13:42;;;;;;;78.03;23.17;;;4.90;99.90;;;;;;5076835;28;20032;-73
2021/03/04 01:16:08;;;;;;;93.22;24.92;;;5.00;99.90;;;;;;5077031;28;20035;-73
2021/03/04 01:18:38;;;;;;;81.53;23.73;;;5.00;99.90;;;;;;5058962;28;20017;-73
2021/03/04 01:21:04;;;;;;;84.80;22.80;;;4.90;99.90;;;;;;5089788;28;20024;-73
2021/03/04 01:23:30;;;;;;;83.30;22.60;;;4.90;99.90;;;;;;5096547;28;20081;-73
2021/03/04 01:25:56;;;;;;;84.65;22.00;;;4.90;99.90;;;;;;5096947;28;20425;-73
2021/03/04 01:28:22;;;;;;;91.15;25.00;;;4.80;99.90;;;;;;5078633;28;20070;-73
2021/03/04 01:30:48;;;;;;;90.07;26.58;;;4.80;99.90;;;;;;5085340;28;20060;-74
2021/03/04 01:33:13;;;;;;;91.93;23.77;;;4.80;99.90;;;;;;5076374;28;20070;-74
2021/03/04 01:35:39;;;;;;;88.25;24.83;;;4.80;99.90;;;;;;5076474;28;20435;-73
2021/03/04 01:38:04;;;;;;;79.22;23.05;;;4.80;99.90;;;;;;5058341;28;20080;-73
2021/03/04 01:40:30;;;;;;;79.68;22.15;;;4.80;99.90;;;;;;5066422;28;20035;-74
2021/03/04 01:42:56;;;;;;;85.47;23.90;;;4.90;99.90;;;;;;5092058;23;20040;-73
2021/03/04 01:45:21;;;;;;;66.20;19.02;;;4.90;99.90;;;;;;5096721;28;20032;-74
2021/03/04 01:47:49;;;;;;;63.72;20.67;;;4.90;99.90;;;;;;5078627;28;20031;-74
2021/03/04 01:50:16;;;;;;;68.35;21.20;;;4.90;99.90;;;;;;5096283;28;20020;-73
2021/03/04 01:52:43;;;;;;;65.05;20.48;;;4.90;99.90;;;;;;5078000;28;20031;-73
2021/03/04 01:55:10;;;;;;;65.30;20.52;;;4.90;99.90;;;;;;5078280;28;20482;-73
2021/03/04 01:57:37;;;;;;;65.95;21.13;;;4.90;99.90;;;;;;5110955;22;20178;-74
2021/03/04 02:00:08;;;;;;;69.20;19.83;;;4.90;99.90;;;;;;5095761;28;20024;-73
2021/03/04 02:02:33;;;;;;;64.03;20.40;;;4.90;99.90;;;;;;5095684;28;20509;-74
2021/03/04 02:04:59;;;;;;;66.03;20.98;;;4.90;99.90;;;;;;5077755;28;20024;-74
2021/03/04 02:07:27;;;;;;;62.50;19.67;;;4.90;99.90;;;;;;5096268;28;20028;-75
2021/03/04 02:10:00;;;;;;;62.50;18.80;;;4.90;99.90;;;;;;5096165;28;20077;-74
2021/03/04 02:12:50;;;;;;;62.25;19.63;;;4.90;99.90;;;;;;5096255;28;20032;-74
2021/03/04 02:15:26;;;;;;;60.58;18.83;;;4.90;99.90;;;;;;5095994;28;20070;-74
2021/03/04 02:17:53;;;;;;;56.90;18.30;;;4.90;99.90;;;;;;5077732;28;20112;-74
2021/03/04 02:20:31;;;;;;;65.65;19.98;;;4.80;99.90;;;;;;5095541;28;20066;-75
2021/03/04 02:23:08;;;;;;;66.32;20.05;;;4.80;99.90;;;;;;5094543;28;20432;-73
2021/03/04 02:25:51;;;;;;;65.97;22.00;;;4.80;99.90;;;;;;5111560;23;20106;-74
2021/03/04 02:28:18;;;;;;;61.85;20.15;;;4.80;99.90;;;;;;5094877;28;20490;-73
2021/03/04 02:30:46;;;;;;;58.10;18.55;;;4.80;99.90;;;;;;5114276;28;20089;-74
2021/03/04 02:33:16;;;;;;;66.88;20.00;;;4.80;99.90;;;;;;5114436;28;20493;-73
2021/03/04 02:35:44;;;;;;;56.97;18.02;;;4.80;99.90;;;;;;5113131;22;20042;-73
2021/03/04 02:38:16;;;;;;;55.67;17.58;;;4.80;99.90;;;;;;5098731;22;20119;-74
2021/03/04 02:40:45;;;;;;;48.85;16.58;;;4.70;99.90;;;;;;5095180;28;20455;-73
2021/03/04 02:43:14;;;;;;;49.58;16.90;;;4.70;99.90;;;;;;5095883;28;20024;-73
2021/03/04 02:45:42;;;;;;;55.38;17.20;;;4.70;99.90;;;;;;5095822;28;20478;-73
2021/03/04 02:48:12;;;;;;;53.83;15.83;;;4.70;99.90;;;;;;5094320;28;20517;-73
2021/03/04 02:50:39;;;;;;;59.47;17.38;;;4.70;99.90;;;;;;5092949;28;20024;-74
2021/03/04 02:53:06;;;;;;;60.35;17.67;;;4.70;99.90;;;;;;5095583;28;20024;-74
2021/03/04 02:55:32;;;;;;;57.30;18.80;;;4.70;99.90;;;;;;5095831;28;20031;-73
2021/03/04 02:57:59;;;;;;;62.42;18.40;;;4.70;99.90;;;;;;5093720;28;20026;-73
2021/03/04 03:00:27;;;;;;;58.03;18.38;;;4.60;99.90;;;;;;5093937;28;20017;-73
2021/03/04 03:02:57;;;;;;;57.65;18.08;;;4.60;99.90;;;;;;5093390;28;20032;-74
2021/03/04 03:05:27;;;;;;;59.33;17.80;;;4.70;99.90;;;;;;5093834;28;20082;-74
2021/03/04 03:07:53;;;;;;;59.55;17.67;;;4.70;99.90;;;;;;5094694;28;20028;-73
2021/03/04 03:10:19;;;;;;;65.53;18.33;;;4.70;99.90;;;;;;5095078;28;20436;-73
2021/03/04 03:12:47;;;;;;;59.80;18.63;;;4.70;99.90;;;;;;5093702;28;20020;-72
2021/03/04 03:15:16;;;;;;;59.90;19.33;;;4.70;99.90;;;;;;5086798;22;20041;-74
2021/03/04 03:17:43;;;;;;;62.10;19.52;;;4.60;99.90;;;;;;5042478;28;20025;-74
2021/03/04 03:20:11;;;;;;;60.75;18.75;;;4.60;99.90;;;;;;5054631;28;20021;-74
2021/03/04 03:22:37;;;;;;;63.83;19.37;;;4.70;99.90;;;;;;5054545;28;20029;-72
2021/03/04 03:25:07;;;;;;;59.40;18.60;;;4.70;99.90;;;;;;5054554;28;20028;-73
2021/03/04 03:27:33;;;;;;;59.45;19.10;;;4.70;99.90;;;;;;5035325;28;20021;-72
2021/03/04 03:30:00;;;;;;;56.42;18.92;;;4.70;99.90;;;;;;5034724;28;20506;-74
2021/03/04 03:32:29;;;;;;;52.53;17.70;;;4.70;99.90;;;;;;5034382;28;20111;-74
2021/03/04 03:34:55;;;;;;;51.38;15.77;;;4.70;99.90;;;;;;5034371;28;20043;-74
2021/03/04 03:37:22;;;;;;;56.22;18.85;;;4.70;99.90;;;;;;5049570;28;20537;-74
2021/03/04 03:39:50;;;;;;;52.60;17.27;;;4.60;99.90;;;;;;5054904;28;20104;-74
2021/03/04 03:42:16;;;;;;;52.40;15.60;;;4.60;99.90;;;;;;5054347;28;20035;-74
2021/03/04 03:44:42;;;;;;;44.90;15.52;;;4.50;99.90;;;;;;5054214;28;20566;-75
2021/03/04 03:47:09;;;;;;;46.55;15.98;;;4.50;99.90;;;;;;5041285;28;20063;-74
2021/03/04 03:49:38;;;;;;;43.83;14.52;;;4.40;99.90;;;;;;5034642;28;20025;-75
2021/03/04 03:52:05;;;;;;;41.88;15.02;;;4.50;99.90;;;;;;5033817;28;20480;-74
2021/03/04 03:54:31;;;;;;;43.35;14.45;;;4.50;99.90;;;;;;5034514;28;20029;-74
2021/03/04 03:56:59;;;;;;;41.05;15.02;;;4.50;99.90;;;;;;5036714;28;20022;-74
2021/03/04 03:59:25;;;;;;;42.40;15.60;;;4.50;99.90;;;;;;5034138;28;20017;-74
2021/03/04 04:01:52;;;;;;;38.58;14.35;;;4.50;99.90;;;;;;5033541;28;20043;-75
2021/03/04 04:04:17;;;;;;;39.00;13.80;;;4.40;99.90;;;;;;5033340;28;20029;-74
2021/03/04 04:06:44;;;;;;;43.15;14.38;;;4.40;99.90;;;;;;5041249;28;20029;-74
2021/03/04 04:09:10;;;;;;;42.85;13.40;;;4.50;99.90;;;;;;5052599;28;20025;-74
2021/03/04 04:11:36;;;;;;;38.05;14.15;;;4.50;99.90;;;;;;5034485;28;20033;-74
2021/03/04 04:14:02;;;;;;;40.90;14.40;;;4.40;99.90;;;;;;5034394;28;20499;-74
2021/03/04 04:16:29;;;;;;;38.42;14.02;;;4.40;99.90;;;;;;5033059;28;20030;-75
2021/03/04 04:18:58;;;;;;;39.53;14.15;;;4.40;99.90;;;;;;5033725;28;20507;-73
2021/03/04 04:21:24;;;;;;;38.53;13.85;;;4.50;99.90;;;;;;5051878;28;20090;-75
2021/03/04 04:23:51;;;;;;;34.65;13.20;;;4.40;99.90;;;;;;5036437;28;20021;-74
2021/03/04 04:26:19;;;;;;;38.05;13.52;;;4.40;99.90;;;;;;5032667;28;20021;-73
2021/03/04 04:28:45;;;;;;;43.45;13.90;;;4.30;99.90;;;;;;5032450;28;20383;-73
2021/03/04 04:31:11;;;;;;;41.22;14.05;;;4.30;99.90;;;;;;5047522;28;20021;-74
2021/03/04 04:33:37;;;;;;;39.33;12.93;;;4.40;99.90;;;;;;5034044;28;20084;-74
2021/03/04 04:36:03;;;;;;;43.35;13.95;;;4.30;99.90;;;;;;5032685;28;20088;-74
2021/03/04 04:38:29;;;;;;;46.80;14.57;;;4.30;99.90;;;;;;5034021;28;20104;-74
2021/03/04 04:40:55;;;;;;;43.15;15.13;;;4.30;99.90;;;;;;5044135;28;20052;-75
2021/03/04 04:43:20;;;;;;;48.80;14.70;;;4.30;99.90;;;;;;5053397;28;20546;-74
2021/03/04 04:45:46;;;;;;;46.05;13.88;;;4.30;99.90;;;;;;5052910;28;20017;-74
2021/03/04 04:48:12;;;;;;;46.45;15.10;;;4.30;99.90;;;;;;5052366;28;20529;-74
2021/03/04 04:50:38;;;;;;;45.17;14.77;;;4.40;99.90;;;;;;5037132;28;20064;-74
2021/03/04 04:53:04;;;;;;;43.45;14.98;;;4.40;99.90;;;;;;5032274;28;20033;-73
2021/03/04 04:55:30;;;;;;;45.45;15.43;;;4.40;99.90;;;;;;5033727;28;20056;-73
2021/03/04 04:57:55;;;;;;;48.10;15.70;;;4.40;99.90;;;;;;5033925;28;20021;-74
2021/03/04 05:00:21;;;;;;;47.33;16.13;;;4.40;99.90;;;;;;5039340;28;20022;-74
2021/03/04 05:02:47;;;;;;;50.55;15.93;;;4.40;99.90;;;;;;5051977;28;20127;-74
2021/03/04 05:05:13;;;;;;;49.15;15.82;;;4.40;99.90;;;;;;5032678;28;20056;-74
2021/03/04 05:07:38;;;;;;;47.80;15.73;;;4.40;99.90;;;;;;5031962;28;20097;-74
2021/03/04 05:10:06;;;;;;;43.70;13.63;;;4.40;99.90;;;;;;5050035;28;20037;-74
2021/03/04 05:12:32;;;;;;;43.80;15.50;;;4.50;99.90;;;;;;5051920;28;20017;-74
2021/03/04 05:14:57;;;;;;;46.80;14.40;;;4.50;99.90;;;;;;5056060;28;20029;-73
2021/03/04 05:17:23;;;;;;;39.17;14.23;;;4.50;99.90;;;;;;5056023;28;20013;-73
2021/03/04 05:19:49;;;;;;;44.00;13.93;;;4.50;99.90;;;;;;5055685;28;20382;-73
2021/03/04 05:22:15;;;;;;;47.83;15.63;;;4.50;99.90;;;;;;5052656;28;20044;-73
2021/03/04 05:24:41;;;;;;;51.72;16.50;;;4.40;99.90;;;;;;5036631;28;20075;-74
2021/03/04 05:27:07;;;;;;;46.45;14.30;;;4.40;99.90;;;;;;5035873;28;20071;-74
2021/03/04 05:29:32;;;;;;;48.25;15.23;;;4.40;99.90;;;;;;5035816;28;20033;-74
2021/03/04 05:31:58;;;;;;;52.28;15.63;;;4.40;99.90;;;;;;5035587;28;20029;-73
2021/03/04 05:34:23;;;;;;;43.00;14.68;;;4.40;99.90;;;;;;5036774;28;20132;-73
2021/03/04 05:36:49;;;;;;;45.65;15.05;;;4.30;99.90;;;;;;5095072;22;20421;-74
2021/03/04 05:39:15;;;;;;;46.53;14.55;;;4.30;99.90;;;;;;5096764;28;20023;-74
2021/03/04 05:41:42;;;;;;;43.83;14.32;;;4.30;99.90;;;;;;5082697;28;20036;-74
2021/03/04 05:44:08;;;;;;;42.58;14.27;;;4.30;99.90;;;;;;5076266;28;20398;-74
2021/03/04 05:46:34;;;;;;;43.33;14.43;;;4.30;99.90;;;;;;5058183;28;20025;-73
2021/03/04 05:49:01;;;;;;;43.50;13.98;;;4.30;99.90;;;;;;5058654;28;20036;-74
2021/03/04 05:51:32;;;;;;;48.60;14.40;;;4.30;99.90;;;;;;5076132;28;20024;-73
2021/03/04 05:53:59;;;;;;;42.42;13.18;;;4.30;99.90;;;;;;5076819;28;20390;-74
2021/03/04 05:56:25;;;;;;;42.35;12.52;;;4.30;99.90;;;;;;5078972;28;20062;-74
2021/03/04 05:58:52;;;;;;;44.72;13.93;;;4.30;99.90;;;;;;5078209;28;20012;-74
2021/03/04 06:01:18;;;;;;;37.47;13.13;;;4.30;99.90;;;;;;5096577;28;20028;-74
2021/03/04 06:03:45;;;;;;;42.03;13.90;;;4.30;99.90;;;;;;5078165;28;20486;-74
2021/03/04 06:06:11;;;;;;;47.70;13.48;;;4.30;99.90;;;;;;5077625;28;20023;-75
2021/03/04 06:08:37;;;;;;;43.28;13.00;;;4.30;99.90;;;;;;5096728;28;20035;-74
2021/03/04 06:11:04;;;;;;;42.13;13.18;;;4.30;99.90;;;;;;5078128;28;20017;-74
2021/03/04 06:13:31;;;;;;;42.42;14.20;;;4.30;99.90;;;;;;5077812;28;20077;-75
2021/03/04 06:16:00;;;;;;;53.13;15.45;;;4.30;99.90;;;;;;5061534;28;20021;-74
2021/03/04 06:18:40;;;;;;;39.45;13.18;;;4.30;99.90;;;;;;5075728;28;20028;-74
2021/03/04 06:21:22;;;;;;;44.72;14.38;;;4.30;99.90;;;;;;5063202;28;20092;-75
2021/03/04 06:23:48;;;;;;;40.63;12.07;;;4.40;99.90;;;;;;5077744;28;20363;-73
2021/03/04 06:26:37;;;;;;;43.20;13.95;;;4.30;99.90;;;;;;5078931;22;20186;-73
2021/03/04 06:29:16;;;;;;;46.70;14.85;;;4.40;99.90;;;;;;5057460;28;20048;-74
2021/03/04 06:31:42;;;;;;;41.22;12.90;;;4.40;99.90;;;;;;5068994;22;20041;-74
2021/03/04 06:34:19;;;;;;;43.97;12.93;;;4.40;99.90;;;;;;5055822;28;20378;-73
2021/03/04 06:37:09;;;;;;;42.67;13.23;;;4.40;99.90;;;;;;5055378;28;20025;-73
2021/03/04 06:39:46;;;;;;;44.70;12.95;;;4.40;99.90;;;;;;5055559;28;20032;-74
2021/03/04 06:42:13;;;;;;;47.13;12.57;;;4.40;99.90;;;;;;5042182;28;20037;-74
2021/03/04 06:47:32;;;;;;;49.08;14.60;;;4.40;99.90;;;;;;5094333;28;20055;-74
2021/03/04 06:49:57;;;;;;;42.53;13.95;;;4.30;99.90;;;;;;5094337;28;20016;-74
2021/03/04 06:52:32;;;;;;;46.65;12.98;;;4.30;99.90;;;;;;5095034;28;20024;-74
2021/03/04 06:55:07;;;;;;;51.45;14.13;;;4.30;99.90;;;;;;5095691;28;20047;-75
2021/03/04 06:57:33;;;;;;;45.72;12.95;;;4.30;99.90;;;;;;5095393;28;20051;-74
2021/03/04 06:59:59;;;;;;;47.70;13.57;;;4.40;99.90;;;;;;5094831;28;20386;-74
2021/03/04 07:02:29;;;;;;;46.30;12.93;;;4.40;99.90;;;;;;5094120;28;20023;-74
2021/03/04 07:05:02;;;;;;;48.95;14.52;;;4.40;99.90;;;;;;5056795;28;20123;-74
2021/03/04 07:07:29;;;;;;;45.90;12.60;;;4.40;99.90;;;;;;5056823;28;20501;-78
2021/03/04 07:10:02;;;;;;;53.67;14.57;;;4.40;99.90;;;;;;5074834;28;20029;-75
2021/03/04 07:12:29;;;;;;;43.08;12.80;;;4.40;99.90;;;;;;5060766;28;20039;-74
2021/03/04 07:14:54;;;;;;;46.67;13.65;;;4.40;99.90;;;;;;5074701;28;20593;-74
2021/03/04 07:20:03;;;;;;;49.25;14.70;;;4.40;99.90;;;;;;5093221;28;20067;-76
2021/03/04 07:22:30;;;;;;;53.00;14.15;;;4.40;99.90;;;;;;5094248;28;20180;-75
2021/03/04 07:24:57;;;;;;;47.03;13.35;;;4.30;99.90;;;;;;5094509;28;20051;-73
2021/03/04 07:27:23;;;;;;;51.35;14.35;;;4.40;99.90;;;;;;5076631;28;20024;-74
2021/03/04 07:29:50;;;;;;;53.80;15.23;;;4.40;99.90;;;;;;5076414;28;20021;-75
2021/03/04 07:32:17;;;;;;;50.15;14.80;;;4.50;99.90;;;;;;5109875;22;20039;-75
2021/03/04 07:34:44;;;;;;;54.50;14.68;;;4.50;99.90;;;;;;5110572;22;20095;-73
2021/03/04 07:37:17;;;;;;;55.92;15.00;;;4.40;99.90;;;;;;5093870;28;20107;-74
2021/03/04 07:39:43;;;;;;;53.33;15.63;;;4.50;99.90;;;;;;5093760;28;20031;-74
2021/03/04 07:44:42;;;;;;;57.00;16.60;;;4.60;99.90;;;;;;5113453;28;20051;-73
2021/03/04 07:47:09;;;;;;;52.35;14.68;;;4.50;99.90;;;;;;5094833;22;20509;-74
2021/03/04 07:49:35;;;;;;;59.28;17.73;;;4.60;99.90;;;;;;5073345;28;20020;-74
2021/03/04 07:52:26;;;;;;;52.90;15.85;;;4.60;99.90;;;;;;5075371;28;20028;-74
2021/03/04 07:54:54;;;;;;;54.78;14.70;;;4.60;99.90;;;;;;5108606;22;20122;-74
2021/03/04 07:57:25;;;;;;;53.13;15.13;;;4.50;99.90;;;;;;5097566;28;20016;-74
2021/03/04 07:59:56;;;;;;;58.63;16.55;;;4.60;99.90;;;;;;5121493;22;20050;-73
2021/03/04 08:02:30;;;;;;;58.13;15.30;;;4.70;99.90;;;;;;5096551;28;20020;-74
2021/03/04 08:05:16;;;;;;;48.65;14.73;;;4.70;99.90;;;;;;5114554;28;20035;-74
2021/03/04 08:07:44;;;;;;;56.42;15.82;;;4.70;99.90;;;;;;5096088;28;20020;-75
2021/03/04 08:10:13;;;;;;;56.50;16.70;;;4.80;99.90;;;;;;5096275;28;20031;-75
2021/03/04 08:12:47;;;;;;;49.97;13.18;;;4.80;99.90;;;;;;5096197;28;20073;-75
2021/03/04 08:15:13;;;;;;;53.53;14.20;;;4.80;99.90;;;;;;5096823;28;20481;-73
2021/03/04 08:17:39;;;;;;;49.80;13.18;;;4.80;99.90;;;;;;5115184;28;20461;-74
2021/03/04 08:20:13;;;;;;;47.15;14.63;;;4.80;99.90;;;;;;5114362;28;20015;-74
2021/03/04 08:22:56;;;;;;;46.65;13.82;;;4.90;99.90;;;;;;5096219;28;20035;-74
2021/03/04 08:25:23;;;;;;;51.58;13.85;;;4.90;99.90;;;;;;5096494;28;20389;-75
2021/03/04 08:27:54;;;;;;;44.33;12.10;;;4.90;99.90;;;;;;5114804;28;20058;-74
2021/03/04 08:30:42;;;;;;;49.25;13.95;;;4.90;99.90;;;;;;5115458;28;20015;-73
2021/03/04 08:33:09;;;;;;;48.35;15.18;;;4.90;99.90;;;;;;5097512;28;20031;-74
2021/03/04 08:35:37;;;;;;;50.25;15.05;;;4.90;99.90;;;;;;5108430;22;20052;-74
2021/03/04 08:38:05;;;;;;;49.92;14.35;;;4.90;99.90;;;;;;5092695;28;20019;-74
2021/03/04 08:40:42;;;;;;;52.67;13.20;;;4.90;99.90;;;;;;5092054;28;20017;-74
2021/03/04 08:43:10;;;;;;;48.22;15.38;;;4.90;99.90;;;;;;5093756;28;20024;-73
2021/03/04 08:45:36;;;;;;;50.83;14.07;;;5.00;99.90;;;;;;5093120;28;20028;-74
2021/03/04 08:48:10;;;;;;;49.50;14.45;;;4.90;99.90;;;;;;5093138;28;20432;-73
2021/03/04 08:50:46;;;;;;;50.55;15.00;;;4.90;99.90;;;;;;5096072;28;20024;-74
2021/03/04 08:53:26;;;;;;;43.30;13.60;;;4.90;99.90;;;;;;5095854;28;20024;-73
2021/03/04 08:55:57;;;;;;;41.10;12.43;;;4.90;99.90;;;;;;5097568;28;20032;-73
2021/03/04 08:58:27;;;;;;;44.80;13.57;;;4.90;99.90;;;;;;5096030;28;20028;-74
2021/03/04 09:00:56;;;;;;;41.97;12.73;;;5.00;99.90;;;;;;5095767;28;20444;-74
2021/03/04 09:03:23;;;;;;;41.38;11.60;;;4.90;99.90;;;;;;5098009;28;20107;-74
2021/03/04 09:05:50;;;;;;;47.65;13.15;;;5.00;99.90;;;;;;5097152;28;20116;-75
2021/03/04 09:08:16;;;;;;;40.53;12.60;;;5.00;99.90;;;;;;5098977;28;20024;-74
2021/03/04 09:10:51;;;;;;;39.03;11.80;;;5.00;99.90;;;;;;5095702;28;20392;-74
2021/03/04 09:13:24;;;;;;;42.58;11.88;;;5.10;99.90;;;;;;5097565;28;20115;-74
2021/03/04 09:15:54;;;;;;;35.72;12.38;;;5.10;99.90;;;;;;5097868;28;20024;-74
2021/03/04 09:18:23;;;;;;;41.35;12.43;;;5.10;99.90;;;;;;5096508;28;20046;-73
2021/03/04 09:20:51;;;;;;;35.17;11.68;;;5.10;99.90;;;;;;5097554;28;20019;-73
2021/03/04 09:23:27;;;;;;;35.92;10.57;;;5.10;99.90;;;;;;5096159;28;20035;-73
2021/03/04 09:25:55;;;;;;;37.13;11.07;;;5.10;99.90;;;;;;5096118;28;20032;-74
2021/03/04 09:28:21;;;;;;;35.47;9.15;;;5.10;99.90;;;;;;5097788;28;20065;-73
2021/03/04 09:30:47;;;;;;;26.90;9.43;;;5.10;99.90;;;;;;5096864;28;20020;-74
2021/03/04 09:33:21;;;;;;;31.52;9.68;;;5.10;99.90;;;;;;5097680;28;20043;-74
2021/03/04 09:36:01;;;;;;;24.20;8.25;;;5.10;99.90;;;;;;5096813;28;20048;-74
2021/03/04 09:38:28;;;;;;;30.85;8.85;;;5.10;99.90;;;;;;5095740;28;20055;-75
2021/03/04 09:40:55;;;;;;;26.55;7.30;;;5.10;99.90;;;;;;5097840;28;20038;-73
2021/03/04 09:43:22;;;;;;;28.17;7.78;;;5.20;99.90;;;;;;5097345;28;20123;-73
2021/03/04 09:45:50;;;;;;;24.42;6.78;;;5.20;99.90;;;;;;5095371;28;20398;-74
2021/03/04 09:48:17;;;;;;;25.08;6.80;;;5.30;99.90;;;;;;5095693;28;20394;-73
2021/03/04 09:50:52;;;;;;;22.95;7.20;;;5.20;99.90;;;;;;5096369;28;20054;-74
2021/03/04 09:53:18;;;;;;;25.65;8.15;;;5.20;99.90;;;;;;5096840;28;20032;-73
2021/03/04 09:55:45;;;;;;;20.83;6.05;;;5.20;99.90;;;;;;5096476;28;20519;-73
2021/03/04 09:58:13;;;;;;;19.70;6.60;;;5.20;99.90;;;;;;5095239;28;20103;-73
2021/03/04 10:00:39;;;;;;;22.70;5.35;;;5.10;99.90;;;;;;5095091;28;20470;-73
2021/03/04 10:03:14;;;;;;;18.38;6.47;;;5.10;99.90;;;;;;5095378;28;20027;-75
2021/03/04 10:05:48;;;;;;;20.60;5.22;;;5.10;99.90;;;;;;5113349;22;20047;-73
2021/03/04 10:08:14;;;;;;;17.63;5.45;;;5.20;99.90;;;;;;5116632;28;20023;-74
2021/03/04 10:10:40;;;;;;;18.88;6.30;;;5.20;99.90;;;;;;5098244;28;20054;-74
2021/03/04 10:13:06;;;;;;;16.30;4.55;;;5.20;99.90;;;;;;5115740;28;20035;-74
2021/03/04 10:15:40;;;;;;;14.20;4.88;;;5.20;99.90;;;;;;5116679;28;20461;-74
2021/03/04 10:18:11;;;;;;;15.52;4.63;;;5.30;99.90;;;;;;5115377;28;20019;-74
2021/03/04 10:20:38;;;;;;;15.02;3.30;;;5.20;99.90;;;;;;5116333;28;20016;-75
2021/03/04 10:23:04;;;;;;;11.07;2.67;;;5.30;99.90;;;;;;5114918;28;20477;-75
2021/03/04 10:25:30;;;;;;;9.15;2.92;;;5.30;99.90;;;;;;5114882;28;20536;-74
2021/03/04 10:27:58;;;;;;;9.85;2.92;;;5.30;99.90;;;;;;5115140;28;20043;-74
2021/03/04 10:30:25;;;;;;;10.52;2.72;;;5.30;99.90;;;;;;5116272;28;20026;-73
2021/03/04 10:32:51;;;;;;;6.07;2.10;;;5.30;99.90;;;;;;5115923;28;20019;-73
2021/03/04 10:35:17;;;;;;;8.52;2.50;;;5.30;99.90;;;;;;5115902;28;20378;-73
2021/03/04 10:37:43;;;;;;;7.05;2.20;;;5.30;99.90;;;;;;5114394;28;20039;-73
2021/03/04 10:40:11;;;;;;;10.77;2.83;;;5.30;99.90;;;;;;5115682;28;20081;-74
2021/03/04 10:42:37;;;;;;;8.55;2.42;;;5.20;99.90;;;;;;5115881;28;20031;-74
2021/03/04 10:45:05;;;;;;;9.98;2.58;;;5.20;99.90;;;;;;5114491;28;20020;-74
2021/03/04 10:47:31;;;;;;;10.43;3.13;;;5.30;99.90;;;;;;5115878;28;20083;-73
2021/03/04 10:49:57;;;;;;;9.98;2.45;;;5.30;99.90;;;;;;5115783;28;20110;-74
2021/03/04 10:52:23;;;;;;;10.77;2.72;;;5.30;99.90;;;;;;5114755;28;20051;-74
2021/03/04 10:54:50;;;;;;;11.02;3.65;;;5.30;99.90;;;;;;5115819;28;20385;-74
2021/03/04 10:57:15;;;;;;;10.25;2.92;;;5.30;99.90;;;;;;5114188;28;20168;-74
2021/03/04 10:59:41;;;;;;;10.55;2.90;;;5.30;99.90;;;;;;5114795;28;20055;-74
2021/03/04 11:02:06;;;;;;;8.77;2.75;;;5.30;99.90;;;;;;5114703;28;20126;-74
2021/03/04 11:04:32;;;;;;;15.13;3.08;;;5.30;99.90;;;;;;5114395;28;20469;-74
2021/03/04 11:06:58;;;;;;;7.10;2.60;;;5.40;99.90;;;;;;5114215;28;20472;-75
2021/03/04 11:09:23;;;;;;;6.68;2.33;;;5.50;99.90;;;;;;5113784;28;20477;-74
2021/03/04 11:11:49;;;;;;;5.10;1.90;;;5.60;99.90;;;;;;5096232;28;20028;-74
2021/03/04 11:14:16;;;;;;;7.20;2.35;;;5.70;99.90;;;;;;5115528;28;20024;-73
2021/03/04 11:16:42;;;;;;;7.55;2.47;;;5.80;99.90;;;;;;5096984;28;20362;-74
2021/03/04 11:19:09;;;;;;;5.53;1.67;;;5.80;99.90;;;;;;5113803;28;20045;-74
2021/03/04 11:21:35;;;;;;;5.40;1.65;;;5.90;99.90;;;;;;5096578;28;20043;-74
2021/03/04 11:24:01;;;;;;;5.20;1.63;;;5.90;99.90;;;;;;5097010;28;20118;-73
2021/03/04 11:26:27;;;;;;;5.55;1.80;;;5.90;99.90;;;;;;5115377;28;20481;-73
2021/03/04 11:28:52;;;;;;;5.13;1.83;;;5.90;99.90;;;;;;5113997;28;20020;-74
2021/03/04 11:31:18;;;;;;;4.30;1.70;;;6.00;99.90;;;;;;5114834;28;20108;-74
2021/03/04 11:33:44;;;;;;;4.13;1.33;;;6.10;99.90;;;;;;5114791;28;20030;-74
2021/03/04 11:36:09;;;;;;;4.53;1.40;;;6.30;99.90;;;;;;5113877;28;20015;-74
2021/03/04 11:38:35;;;;;;;3.95;1.20;;;6.40;99.90;;;;;;5096583;28;20028;-74
2021/03/04 11:41:01;;;;;;;2.90;0.95;;;6.60;99.90;;;;;;5115256;28;20023;-73
2021/03/04 11:43:26;;;;;;;4.00;1.70;;;6.80;99.90;;;;;;5114989;28;20024;-73
2021/03/04 11:45:52;;;;;;;2.65;0.90;;;6.80;99.90;;;;;;5114325;28;20023;-73
2021/03/04 11:48:17;;;;;;;4.40;1.00;;;6.90;99.90;;;;;;5113717;28;20059;-74
2021/03/04 11:50:43;;;;;;;2.92;0.80;;;6.90;99.90;;;;;;5114654;28;20477;-74
2021/03/04 11:53:08;;;;;;;6.75;1.55;;;7.00;99.90;;;;;;5112968;28;20027;-73
2021/03/04 11:55:34;;;;;;;3.05;1.33;;;7.10;99.90;;;;;;5114484;28;20023;-74
2021/03/04 11:58:00;;;;;;;2.75;0.90;;;7.10;99.90;;;;;;5113213;28;20035;-74
2021/03/04 12:00:26;;;;;;;3.13;0.80;;;7.00;99.90;;;;;;5113885;28;20054;-74
2021/03/04 12:02:51;;;;;;;1.63;0.60;;;7.00;99.90;;;;;;5114891;28;20469;-74
2021/03/04 12:05:17;;;;;;;2.92;0.57;;;7.00;99.90;;;;;;5114666;28;20035;-74
2021/03/04 12:07:43;;;;;;;2.83;0.85;;;7.00;99.90;;;;;;5114320;28;20030;-75
2021/03/04 12:10:10;;;;;;;3.53;0.85;;;6.90;99.90;;;;;;5129160;22;20485;-74
2021/03/04 12:12:36;;;;;;;2.95;0.90;;;6.90;99.90;;;;;;5095932;28;20074;-74
2021/03/04 12:15:03;;;;;;;2.50;0.40;;;7.00;99.90;;;;;;5114658;28;20016;-74
2021/03/04 12:17:29;;;;;;;4.80;1.02;;;7.00;99.90;;;;;;5113911;28;20023;-74
2021/03/04 12:19:54;;;;;;;1.83;0.32;;;7.00;99.90;;;;;;5114757;28;20023;-74
2021/03/04 12:22:20;;;;;;;3.55;0.95;;;7.10;99.90;;;;;;5114656;28;20363;-74
2021/03/04 12:24:45;;;;;;;2.90;0.40;;;7.10;99.90;;;;;;5117173;28;20434;-74
2021/03/04 12:27:11;;;;;;;3.03;0.75;;;7.10;99.90;;;;;;5100428;28;20027;-74
2021/03/04 12:29:36;;;;;;;3.53;0.90;;;7.20;99.90;;;;;;5100327;28;20118;-74
2021/03/04 12:32:03;;;;;;;1.08;0.30;;;7.20;99.90;;;;;;5119134;28;20359;-74
2021/03/04 12:34:29;;;;;;;2.83;0.88;;;7.40;99.90;;;;;;5118810;28;20015;-75
2021/03/04 12:36:54;;;;;;;0.80;0.13;;;7.50;99.80;;;;;;5118360;28;20027;-75
2021/03/04 12:39:20;;;;;;;2.65;0.57;;;7.70;98.80;;;;;;5133262;22;20044;-74
2021/03/04 12:41:45;;;;;;;0.63;0.17;;;7.90;99.50;;;;;;5100199;28;20019;-75
2021/03/04 12:44:12;;;;;;;1.35;0.30;;;8.00;97.40;;;;;;5118446;28;20020;-73
2021/03/04 12:46:38;;;;;;;1.48;0.10;;;8.00;96.40;;;;;;5118889;28;20016;-74
2021/03/04 12:49:03;;;;;;;3.50;0.50;;;8.00;96.90;;;;;;5099975;28;20046;-73
2021/03/04 12:51:32;;;;;;;1.70;0.15;;;8.10;97.00;;;;;;5118637;28;20059;-73